Akrabat, Uzbekistan

8:23 AM +05 on February 28, 2017 (GMT +0500)
Bukhara | | Change Station

Elev 751 ft 39.77 °N, 64.47 °E | Updated 23 minutes ago

Mostly Cloudy
Mostly Cloudy
37 °F
Feels Like 37 °F
N
2
Wind Variable Wind from WNW

Today
High -- | Low -- °F
--% Chance of Precip.
Yesterday
High -- | Low -- °F
Precip. -- in
Pressure 30.27 in
Visibility 2.2 miles
Clouds Overcast 300 ft
Dew Point 37 °F
Humidity 100%
Rainfall 0.00 in
Snow Depth Not available.
7:16 AM 6:31 PM
Waxing Crescent, 3% visible
METAR UTSB 280300Z 30002KT 3500 -DZ BR OVC003 03/03 Q1025 R01/190065 NOSIG RMK BASE360
Pressure 30.27 in
Visibility 2.2 miles
Clouds Overcast 300 ft
Dew Point 37 °F
Humidity 100%
Rainfall 0.00 in
Snow Depth Not available.
7:16 AM 6:31 PM
Waxing Crescent, 3% visible
METAR UTSB 280300Z 30002KT 3500 -DZ BR OVC003 03/03 Q1025 R01/190065 NOSIG RMK BASE360

Get Your Daily Forecast Email!

Thanks for signing up!

Be on the lookout for a verification email in your inbox.

You'll start receiving the daily forecast at 8 AM.

×

10-Day Weather Forecast

×

Almanac

Astronomy

Feb. 28, 2017 Rise Set
Actual Time
Civil Twilight
Nautical Twilight
Astronomical Twilight
Moon
Length of Visible Light
Length of Day
Tomorrow will be .
, % of the Moon is Illuminated

Today's Extremes

Country Highs Country Lows

Community

WunderPhotos

Upload Photos

1,962,540 photos uploaded!

WunderBlog® & News

Nearby

Air Quality

  Air Quality AQ Index Pollutant
Not available.

Snow Depth

Station Depth Elevation

Earthquake Activity

City Distance Mag. Time & Date
Minimum magnitude displayed is 2.5.

Coastal Water Temperatures

Place Temperature

Stations

Nearby Weather Stations

Station Location Temp. Windchill Dew Point Humidity Wind Precip. Elev Updated Type